Terminal Aerodrome Forecast
Issued by NWS

Current Version | Previous Version | Text Only | Print | Product List | Glossary On
Versions: 1 2 3 4 5 6 7 8 9 10 11 12 13
000
FTUS46 KLOX 162300
TAFPMD
TAF
KPMD 162338Z 1700/1724 26015G22KT P6SM SKC
     FM170200 25010KT P6SM SKC
     FM170900 18005KT P6SM SKC
     FM172100 24015G22KT P6SM SKC=

USA.gov is the U.S. government's official web portal to all federal, state and local government web resources and services.